x

9410230 - La Jolla, Ca (ljac1) Weather Station

7:00am - Sat 6th Feb 2016 All times are PST. -8 hours from GMT.

  • Wind
    6mph
  • Sea Temp 59°f
  • Air Temp 58°f
  • Sea Pressure 1023.5mb
  • 9410230 - La Jolla, Ca
  • 9410230 - La Jolla, Ca

More Historic Weather Station data

Upgrade to MSW Pro to gain access to the past 30 days of data for over 8000 Wavebouys and Weather Stations around the globe.

Join Pro

Comparision Forecast

View Surf forecast
   
Sat 02/06 7:00am 6
mph
1023.5mb 59f 58f
6:54am 3 6 mph 1023.4mb 59f 60f
6:48am 3 7 mph 1023.5mb 59f 59f
6:42am 5 7 mph 1023.4mb 59f 59f
6:36am 6 9 mph 1023.4mb 59f 59f
6:30am 6 9 mph 1023.4mb 59f 59f
6:24am 8 11 mph 1023.4mb 59f 60f
6:18am 9 14 mph 1023.5mb 59f 59f
6:12am 13
mph
1023.4mb 59f 59f
6:06am 9 11 mph 1023.5mb 59f 60f
6:00am 8 10 mph 1023.7mb 59f 60f
5:54am 6 9 mph 1023.8mb 59f 59f
5:48am 6 9 mph 1024mb 59f 58f
5:42am 3 6 mph 1024mb 59f 57f
5:36am 5 6 mph 1024mb 59f 57f
5:30am 2 3 mph 1024mb 59f 57f
5:24am 2 3 mph 1024.2mb 59f 57f
5:18am 3
mph
1024.2mb 59f 58f
5:12am 2 3 mph 1024.1mb 59f 58f
5:06am 1 3 mph 1024mb 59f 58f
5:00am 2 3 mph 1024mb 59f 58f
4:54am  -  2 mph 1024mb 59f 58f
4:48am 2 3 mph 1024mb 59f 59f
4:42am 2 3 mph 1023.9mb 59f 59f
4:36am 2 7 mph 1023.8mb 59f 59f
4:30am 7 8 mph 1023.8mb 59f 59f
4:24am 6 7 mph 1023.8mb 59f 58f
4:18am 5 7 mph 1023.8mb 59f 58f
4:12am  -  2 mph 1023.8mb 59f 58f
4:06am 2 3 mph 1023.8mb 59f 59f
4:00am 1 3 mph 1023.8mb 59f 58f
3:54am  -  1 mph 1023.8mb 59f 58f
3:48am  -  2 mph 1023.8mb 59f 58f
3:42am 2
mph
1023.8mb 59f 58f
3:36am 2
mph
1023.8mb 59f 58f
3:30am  -  1 mph 1023.8mb 59f 58f
3:24am  -  2 mph 1023.9mb 59f 59f
3:18am 1 2 mph 1024mb 59f 59f
3:12am 2
mph
1024mb 59f 58f
3:06am 1 2 mph 1023.9mb 59f 59f
3:00am 1
mph
1023.9mb 59f 59f
2:54am  -  1 mph 1024mb 59f 58f
2:48am  -  mph 1024mb 59f 58f
2:42am  -  1 mph 1024mb 59f 59f
2:36am  -  1 mph 1024.1mb 59f 58f
2:30am 1
mph
1024.2mb 59f 58f
2:24am  -  1 mph 1024.2mb 59f 58f
2:18am  -  2 mph 1024.3mb 59f 59f
2:12am 2
mph
1024.2mb 59f 59f
2:06am 1 2 mph 1024.2mb 59f 59f
2:00am 1
mph
1024.2mb 59f 59f
1:54am 1
mph
1024.2mb 59f 59f
1:48am  -  mph - 59f 58f
1:42am  -  mph - 59f 58f
1:36am  -  mph - 59f 60f
1:30am 2
mph
1024.1mb 59f 60f
1:24am 2
mph
1024.1mb 59f 60f
1:18am  -  1 mph 1024.1mb 59f 60f
1:12am 2
mph
1024.1mb 59f 60f
1:06am 2 3 mph 1024mb 59f 60f
1:00am 1
mph
1024.1mb 59f 61f
12:54am 2
mph
1024.1mb 59f 61f
12:48am 2
mph
1024mb 59f 61f
12:42am  -  2 mph 1024mb 59f 60f
12:36am 1 2 mph 1024.1mb 59f 59f
12:30am  -  2 mph 1024.1mb 59f 60f
12:24am 2 3 mph 1024.1mb 59f 60f
12:18am 2
mph
1024.1mb 59f 59f
12:12am  -  2 mph 1024.2mb 59f 60f
12:06am 1
mph
1024.2mb 59f 59f
12:00am  -  2 mph 1024.3mb 59f 59f
Fri 02/05 11:54pm 2 3 mph 1024.3mb 59f 60f
11:48pm 1 2 mph 1024.4mb 59f 60f
11:42pm 2 3 mph 1024.4mb 59f 60f
11:36pm 2 5 mph 1024.4mb 59f 60f
11:30pm 3 6 mph 1024.4mb 59f 61f
11:24pm 5 6 mph 1024.4mb 59f 61f
11:18pm 5 6 mph 1024.4mb 59f 60f
11:12pm 2 3 mph 1024.4mb 59f 60f
11:06pm 2 5 mph 1024.4mb 59f 61f
11:00pm 1 3 mph 1024.3mb 59f 62f
10:54pm 3 6 mph 1024.2mb 59f 61f
10:48pm 5 7 mph 1024.3mb 59f 62f
10:42pm  -  2 mph 1024.3mb 59f 62f
10:36pm 3 5 mph 1024.2mb 59f 62f
10:30pm 1 6 mph - 59f 61f
10:24pm 5 6 mph - 59f 61f
10:18pm 1 7 mph 1024.3mb 59f 63f
10:12pm 3 8 mph 1024.2mb 59f 65f
10:06pm 7 10 mph 1024.1mb 59f 65f
10:00pm 9 10 mph 1024.1mb 59f 66f
9:54pm 8 9 mph 1024.1mb 59f 66f
9:48pm 6 8 mph 1024.1mb 59f 66f
9:42pm 5 8 mph 1024.1mb 59f 66f
9:36pm 8 10 mph 1024mb 59f 68f
9:30pm 7 9 mph 1024mb 59f 67f
9:24pm 8 10 mph 1024.1mb 59f 67f
9:18pm 6 8 mph 1024.3mb 59f 66f
9:12pm 5 6 mph 1024.3mb 59f 66f
9:06pm 3 6 mph 1024.3mb 59f 66f
9:00pm 5 7 mph 1024.4mb 59f 65f
8:54pm 6 8 mph 1024.3mb 59f 66f
8:48pm 5 6 mph 1024.4mb 60f 65f
8:42pm 2 6 mph 1024.4mb 60f 64f
8:36pm 1 3 mph 1024.3mb 60f 63f
8:30pm 1 5 mph 1024.3mb 59f 62f
8:24pm 1 3 mph 1024.3mb 60f 62f
8:18pm 2 3 mph 1024.3mb 60f 62f
8:12pm 2 6 mph 1024.3mb 60f 65f
8:06pm 5
mph
1024.4mb 60f 63f
8:00pm 5 6 mph 1024.3mb 60f 64f
7:54pm 5 6 mph 1024.3mb 60f 64f
7:48pm 6 7 mph 1024.3mb 60f 64f
7:42pm 2 6 mph 1024.3mb 60f 67f
7:36pm 2 5 mph 1024.2mb 60f 66f
7:30pm 2 7 mph 1024.1mb 59f 67f
7:24pm 5 8 mph 1024.1mb 59f 67f
7:18pm 7 9 mph 1024mb 59f 67f
7:12pm 6 9 mph 1024mb 59f 67f
7:06pm 7 8 mph 1024mb 59f 68f
7:00pm 5 7 mph 1023.9mb 60f 64f
6:54pm 1 2 mph 1023.9mb 59f 60f
6:48pm  -  1 mph 1023.9mb 59f 61f
6:42pm  -  1 mph 1023.9mb 60f 61f
6:36pm  -  1 mph 1024mb 60f 62f
6:30pm 1 2 mph 1024mb 59f 62f
6:18pm 2
mph
1024mb 59f 62f
6:12pm 3
mph
1024mb 59f 62f
6:06pm 1 2 mph 1023.9mb 59f 62f
6:00pm 1 2 mph 1023.9mb 60f 62f
5:54pm  -  2 mph 1023.9mb 60f 62f
5:48pm 1 3 mph 1023.8mb 60f 62f
5:42pm 2
mph
1023.8mb 60f 62f
5:36pm 1 2 mph 1023.7mb 59f 63f
5:30pm 2 3 mph 1023.7mb 60f 63f
5:24pm 3 5 mph 1023.6mb 60f 63f
5:18pm 3
mph
1023.6mb 60f 64f
5:12pm 2 3 mph 1023.7mb 60f 64f
5:06pm 3
mph
1023.7mb 60f 64f
5:00pm 3 5 mph 1023.6mb 60f 64f
4:54pm 3
mph
1023.5mb 60f 64f
4:48pm 3
mph
1023.5mb 60f 65f
4:42pm 2
mph
1023.4mb 60f 65f
4:36pm 2
mph
1023.3mb 60f 65f
4:30pm 2 3 mph 1023.3mb 60f 65f
4:24pm 3 5 mph 1023.3mb 60f 65f
4:18pm 3 5 mph 1023.2mb 60f 65f
4:12pm 3 5 mph 1023.2mb 60f 65f
4:06pm 3 5 mph 1023.2mb 60f 65f
4:00pm 2 3 mph 1023.2mb 60f 65f
2:48pm  -  mph - 60f 69f
2:42pm  -  mph - 60f 66f
2:36pm  -  mph - 60f 64f
2:30pm 5
mph
1023.5mb 60f 64f
2:24pm 5 6 mph 1023.6mb 60f 64f
2:18pm  -  mph 1023.6mb 60f 64f
2:12pm  -  mph 1023.7mb 60f 65f
2:06pm  -  mph 1023.7mb 60f 65f
2:00pm 2 3 mph 1023.6mb 60f 65f
1:54pm  -  1 mph 1023.6mb 60f 68f
1:48pm  -  mph 1023.6mb 60f 67f
1:42pm  -  mph 1023.6mb 60f 66f
1:36pm  -  mph 1023.6mb 60f 64f
1:30pm 3 5 mph 1023.6mb 60f 63f
1:24pm 5
mph
1023.6mb 60f 63f
1:18pm 3
mph
1023.7mb 60f 64f
1:12pm  -  2 mph 1023.7mb 60f 67f
1:06pm 2 3 mph 1023.8mb 60f 64f
1:00pm 2 3 mph 1023.9mb 60f 63f
12:54pm 2 3 mph 1024mb 60f 64f
12:48pm 3 5 mph 1024.1mb 60f 63f
12:42pm 3
mph
1024.3mb 60f 64f
12:36pm 2
mph
1024.3mb 60f 66f
12:30pm  -  2 mph 1024.4mb 60f 64f
12:24pm 2
mph
1024.4mb 60f 64f
12:18pm  -  1 mph 1024.6mb 60f 66f
12:12pm 1
mph
1024.7mb 60f 66f
12:06pm  -  1 mph 1024.8mb 60f 66f
12:00pm 1 2 mph 1024.9mb 59f 64f
11:54am  -  2 mph 1024.9mb 59f 64f
11:48am 1 2 mph 1025.1mb 59f 64f
11:42am 2
mph
1025.1mb 59f 64f
11:36am 1
mph
1025.3mb 59f 65f
11:30am  -  1 mph 1025.3mb 59f 66f
11:18am 1
mph
1025.5mb 59f 65f
11:12am  -  1 mph 1025.6mb 59f 65f
11:06am 2 3 mph 1025.7mb 59f 63f
11:00am 1
mph
1025.8mb 59f 66f
10:54am 1 2 mph 1025.9mb 59f 66f
10:48am 1 2 mph 1025.9mb 59f 66f
10:42am 1 2 mph 1025.9mb 59f 65f
10:36am 1 2 mph 1025.9mb 59f 63f
10:30am 2 3 mph 1025.9mb 59f 62f
10:24am  -  2 mph 1025.9mb 59f 62f
10:18am 2 3 mph 1026mb 59f 61f
10:12am 3
mph
1026mb 59f 62f
10:06am 2
mph
1026.1mb 59f 64f
10:00am 1
mph
1026.1mb 59f 64f
9:54am  -  1 mph 1026.1mb 59f 65f
9:48am  -  1 mph 1026mb 59f 65f
9:42am 1 2 mph 1026mb 59f 63f
9:36am  -  3 mph 1025.9mb 59f 65f
9:30am 2
mph
1025.9mb 59f 63f
9:24am  -  1 mph 1025.9mb 59f 65f
9:18am  -  1 mph 1025.8mb 59f 63f
9:12am  -  3 mph 1025.9mb 59f 61f
9:06am 2 3 mph 1025.9mb 59f 59f
9:00am 3
mph
1025.9mb 59f 59f
8:54am 2 3 mph 1025.9mb 59f 60f
8:48am 2 3 mph 1025.9mb 59f 60f
8:42am 2 3 mph 1025.9mb 59f 60f
8:36am 1
mph
1025.8mb 59f 62f
8:30am 1 2 mph 1025.8mb 59f 62f
8:24am 2
mph
1025.9mb 59f 61f
8:18am  -  2 mph 1025.8mb 59f 62f
8:12am 1 2 mph 1025.8mb 59f 61f
8:06am  -  2 mph 1025.8mb 59f 60f
8:00am  -  1 mph 1025.7mb 59f 60f
7:54am  -  1 mph 1025.6mb 59f 60f
7:48am 1
mph
1025.6mb 59f 60f
7:42am  -  2 mph 1025.7mb 59f 59f
7:36am 3 6 mph 1025.7mb 59f 56f
7:30am 3 5 mph 1025.7mb 59f 56f
7:24am  -  1 mph 1025.6mb 59f 58f
7:18am  -  1 mph 1025.6mb 59f 58f
7:12am 1 3 mph 1025.6mb 59f 57f
7:06am 2 3 mph 1025.5mb 59f 57f
7:00am 2
mph
1025.4mb 59f 56f
6:54am  -  1 mph 1025.3mb 59f 56f
6:48am 1 2 mph 1025.3mb 59f 56f
6:42am  -  2 mph 1025.3mb 59f 56f
6:36am  -  2 mph 1025.2mb 59f 56f
6:30am 1 2 mph 1025.2mb 59f 56f
6:24am 1 2 mph 1025.1mb 59f 56f
6:18am 1 2 mph 1025mb 59f 55f
6:12am 1 2 mph 1024.9mb 59f 55f
6:06am 1 2 mph 1024.9mb 59f 55f
6:00am  -  1 mph 1024.8mb 59f 55f
5:54am  -  2 mph 1024.8mb 59f 55f
5:48am 2
mph
1024.8mb 59f 55f
5:42am  -  1 mph 1024.7mb 59f 55f
5:36am  -  3 mph 1024.6mb 59f 54f
5:30am 1 3 mph 1024.7mb 59f 55f
5:24am 1
mph
1024.5mb 59f 55f
5:18am  -  mph 1024.5mb 59f 54f
5:12am  -  1 mph 1024.5mb 59f 54f
5:06am  -  1 mph 1024.4mb 59f 54f
5:00am  -  2 mph 1024.4mb 59f 54f
4:54am 1 3 mph 1024.3mb 59f 55f
4:48am 1 2 mph 1024.2mb 59f 55f
4:42am 1
mph
1024.2mb 59f 55f
4:36am  -  2 mph 1024.2mb 59f 54f
4:30am 1 2 mph 1024.2mb 59f 55f
4:24am 1 2 mph 1024.1mb 59f 55f
4:18am 1 2 mph 1024.1mb 59f 55f
4:12am  -  2 mph 1024mb 59f 54f
4:06am  -  3 mph 1024mb 59f 54f
4:00am  -  1 mph 1024.1mb 59f 55f
3:54am 1 3 mph 1024mb 59f 56f
3:48am 1 2 mph 1024mb 59f 56f
3:42am  -  1 mph 1024mb 59f 55f
3:36am 1 2 mph 1023.9mb 59f 56f
3:30am  -  1 mph 1023.9mb 59f 55f
3:24am 1 2 mph 1023.9mb 59f 55f
3:18am  -  2 mph 1023.9mb 59f 56f
3:12am 1 2 mph 1024mb 59f 56f
3:06am 1 2 mph 1024.1mb 59f 56f
3:00am  -  2 mph 1024.1mb 59f 56f
2:54am  -  1 mph 1024.1mb 59f 56f
2:48am 2
mph
1024.1mb - 56f
2:42am 2
mph
1024.1mb - 55f
2:36am  -  1 mph 1024.2mb - 56f
2:30am 1 2 mph 1024.1mb - 56f
2:24am  -  1 mph 1024.1mb - 55f
2:18am  -  2 mph 1024mb - 55f
2:12am  -  1 mph 1024.1mb - 56f
2:06am  -  1 mph 1024.1mb - 56f
2:00am 1 3 mph 1024.1mb - 55f
1:54am 1 2 mph 1024.1mb - 56f
1:48am  -  mph - 59f 55f
1:42am  -  mph - 59f 55f
1:36am  -  mph - 59f 55f
1:30am 1 3 mph 1024.4mb 59f 55f
1:24am 2 3 mph 1024.4mb 59f 55f
1:18am 2 3 mph 1024.4mb 59f 54f
1:12am  -  5 mph 1024.2mb 59f 55f
1:06am 3 6 mph 1024.2mb 59f 54f
1:00am 6 8 mph 1024.2mb 59f 54f
12:54am 6 9 mph 1024.1mb 59f 55f
12:48am 6 7 mph 1024.1mb 59f 54f
12:42am 3 6 mph 1024.1mb 59f 55f
12:36am 3 7 mph 1024.1mb 59f 55f
12:30am 6 7 mph 1024.2mb 59f 55f
12:24am 5 7 mph 1024.2mb 59f 54f
12:18am 5 7 mph 1024.2mb 59f 54f
12:12am 6 7 mph 1024.3mb 59f 54f
12:06am 6 7 mph 1024.3mb 59f 54f
12:00am 5 6 mph 1024.3mb 59f 55f
Thu 02/04 11:54pm 3 6 mph 1024.4mb 59f 55f
11:48pm 5 7 mph 1024.4mb 59f 55f
11:42pm 6 8 mph 1024.4mb 59f 55f
11:36pm 5 8 mph 1024.5mb 59f 55f
11:30pm 6 7 mph 1024.5mb 59f 56f
11:24pm 2 6 mph 1024.5mb 59f 56f
11:18pm 1 5 mph 1024.5mb 59f 57f
11:12pm  -  3 mph 1024.5mb 59f 56f
11:06pm 1 6 mph 1024.4mb 60f 56f
11:00pm 6 7 mph 1024.4mb 60f 56f
10:54pm 5 7 mph 1024.5mb 60f 57f
10:48pm  -  5 mph - - -
10:42pm 3 5 mph - - -
10:36pm 3 7 mph - - -
10:30pm 6 7 mph 1024.6mb - 57f
10:24pm 1 2 mph 1024.5mb - 57f
10:18pm  -  mph 1024.4mb 60f 57f
10:12pm  -  mph 1024.4mb 60f 57f
10:06pm  -  mph 1024.5mb 60f 57f
10:00pm 1 5 mph 1024.4mb 60f 58f
9:54pm 2 3 mph 1024.5mb 60f 58f
9:48pm 5 6 mph 1024.5mb 60f 59f
9:42pm 5 7 mph 1024.6mb 60f 59f
9:36pm 6
mph
1024.6mb 60f 59f
9:30pm 5
mph
1024.5mb 60f 58f
9:24pm 5 6 mph 1024.5mb 60f 59f
9:18pm 5 6 mph 1024.4mb 60f 59f
9:12pm 5
mph
1024.4mb 60f 58f
9:06pm 3 5 mph 1024.3mb 60f 59f
9:00pm 5
mph
1024.2mb 60f 59f
8:54pm 3 5 mph 1024.2mb 60f 59f
8:48pm 3 5 mph 1024.2mb 60f 59f
8:42pm 2 3 mph 1024mb 60f 59f
8:36pm 2 3 mph 1023.9mb 60f 59f
8:30pm 3 5 mph 1023.9mb 60f 59f
8:24pm 5
mph
1023.9mb 60f 59f
8:18pm 3 5 mph 1023.8mb 60f 58f
8:12pm  -  3 mph 1023.7mb 60f 58f
8:06pm 3 5 mph 1023.7mb 60f 57f
8:00pm 2 3 mph 1023.6mb 60f 57f
7:54pm  -  2 mph 1023.6mb 60f 58f
7:48pm 2 5 mph 1023.7mb 60f 59f
7:42pm 2 3 mph 1023.7mb 60f 58f
7:36pm 1 2 mph 1023.6mb 60f 58f
7:30pm 1 2 mph 1023.4mb 60f 59f
7:24pm 2 5 mph 1023.4mb 60f 59f
7:18pm 5 6 mph 1023.4mb 60f 59f
7:12pm 5 6 mph 1023.4mb 60f 59f
7:06pm 3 5 mph 1023.2mb 60f 59f
7:00pm 3 5 mph 1023.1mb 60f 59f
6:54pm 5 6 mph 1023.2mb 60f 59f
6:48pm 5 6 mph 1023.2mb 60f 59f
6:42pm 5 6 mph 1023.2mb 60f 58f
6:36pm 5 6 mph 1023.2mb 60f 58f
6:30pm 5 6 mph 1023.3mb 60f 58f
6:24pm 5 7 mph 1023.4mb 60f 59f
6:18pm 6 7 mph 1023.3mb 60f 59f
6:12pm 6 7 mph 1023.4mb 60f 59f
6:06pm 7
mph
1023.3mb 60f 59f
6:00pm 6 7 mph 1023.2mb 60f 59f
5:54pm 6 7 mph 1023.2mb 60f 59f
5:48pm 6 7 mph 1023.2mb 60f 59f
5:42pm 6 7 mph 1023.1mb 60f 59f
5:36pm 6
mph
1023.1mb 60f 59f
5:30pm 5 6 mph 1023mb 60f 59f
5:18pm 6 7 mph 1022.7mb 60f -
5:12pm 6 8 mph 1022.7mb 60f -
5:06pm 7 8 mph 1022.7mb 60f -
5:00pm 7 8 mph 1022.7mb 60f 60f
4:54pm 7
mph
1022.7mb 60f 60f
4:48pm 7 8 mph 1022.7mb 60f 60f
4:42pm 7 8 mph 1022.7mb 61f 60f
4:36pm 8 9 mph 1022.7mb 61f 60f
4:30pm 7 8 mph 1022.7mb - 60f
4:24pm 7 8 mph 1022.6mb - 60f
4:18pm 8 9 mph 1022.6mb 61f 60f
4:12pm 8 9 mph 1022.6mb 61f 60f
4:06pm 8 9 mph 1022.6mb 61f 60f
4:00pm 8 9 mph 1022.7mb 61f 60f
3:54pm 8 9 mph 1022.7mb 61f 60f
3:48pm 8 9 mph 1022.7mb 61f -
3:42pm 9
mph
1022.8mb 61f -
3:36pm 8 9 mph 1022.9mb 61f -
3:30pm 9 10 mph 1022.9mb 61f 60f
3:24pm 9 10 mph 1022.9mb 61f 60f
3:18pm 9
mph
1022.9mb 61f 60f
3:12pm 9 10 mph 1022.9mb 60f 60f
3:06pm 9 10 mph 1022.9mb 60f 60f
3:00pm 8 9 mph - 60f 60f
2:54pm 8 10 mph - 60f 60f
2:48pm 8 10 mph 1023mb 60f 60f
2:42pm 8 10 mph 1023.1mb 60f 60f
2:36pm 10 11 mph 1023.1mb 60f 60f
2:30pm 10 11 mph 1023.1mb 60f 60f
2:24pm 8 10 mph 1023.1mb 60f 60f
2:18pm 9
mph
1023.2mb 60f 60f
2:12pm 8 10 mph 1023.1mb 60f 60f
2:06pm 8 9 mph 1023.2mb 60f 60f
2:00pm 7 9 mph 1023.3mb - 60f
1:54pm 8 9 mph 1023.3mb - 60f
1:48pm 8 9 mph 1023.4mb 60f 60f
1:42pm 8 10 mph 1023.4mb 60f 60f
1:36pm 9
mph
1023.4mb 60f 60f
1:30pm 7 8 mph 1023.4mb 60f 60f
1:24pm 7 8 mph 1023.5mb 60f 61f
1:18pm 7 8 mph 1023.6mb 60f 60f
1:12pm 7 9 mph 1023.7mb 60f 60f
1:06pm 7 8 mph 1023.8mb 60f 60f
1:00pm 7 9 mph 1023.8mb 60f 60f
12:54pm 8 9 mph 1023.9mb 60f 60f
12:48pm 7 8 mph 1024mb 60f 60f
12:42pm 7 8 mph 1024.1mb 60f 60f
12:36pm 7 8 mph 1024.2mb 60f 59f
12:30pm 8 9 mph 1024.3mb 60f 59f
12:18pm 8 9 mph 1024.6mb 60f 60f
12:12pm 3 6 mph 1024.7mb 60f 61f
12:06pm 3 5 mph 1024.8mb 60f 60f
12:00pm 3 5 mph 1024.9mb 60f 60f
11:54am 5 6 mph 1025.1mb 60f 59f
11:48am 5 7 mph 1025.2mb 60f 59f
11:42am 6
mph
1025.4mb 60f 59f
11:36am 5 6 mph 1025.5mb 60f 59f
11:30am 6
mph
1025.6mb 60f 58f
11:24am 3 5 mph 1025.7mb 60f 58f
11:18am 3 6 mph 1025.8mb 60f 58f
11:12am 6
mph
1026mb 60f 58f
11:06am 3 6 mph 1026mb 60f 58f
11:00am 5 6 mph 1026mb 60f 58f
10:54am 6 8 mph 1026.1mb 60f 57f
10:48am 6 7 mph 1026.2mb 60f 57f
10:42am 5 7 mph 1026.3mb 60f 57f
10:36am 6
mph
1026.5mb 60f 57f
10:30am 6
mph
1026.5mb 60f 56f
10:24am 6 7 mph 1026.4mb 60f 56f
10:18am 6 7 mph 1026.4mb 60f 56f
10:12am 6 7 mph 1026.4mb 60f 56f
10:06am 7 8 mph 1026.4mb 59f 56f
10:00am 7 8 mph 1026.5mb 59f 57f
9:54am 6 7 mph 1026.4mb 59f 58f
9:48am 5 6 mph 1026.4mb 59f 60f
9:42am 2 5 mph 1026.4mb 59f 62f
9:36am 2 3 mph 1026.4mb 59f 62f
9:30am 2 3 mph 1026.4mb 59f 61f
9:24am 5 6 mph 1026.4mb 59f 59f
9:18am  -  7 mph 1026.3mb 60f 62f
9:12am 6
mph
1026.2mb 59f 60f
9:06am 5 6 mph 1026.3mb 59f 58f
9:00am 5 6 mph 1026.3mb 59f 57f
8:54am 5 7 mph 1026.1mb 59f 58f
8:48am 3 6 mph 1026.2mb 59f 57f
8:42am 7 9 mph 1026.2mb 59f 56f
8:36am 5 6 mph 1026.1mb 59f 58f
8:30am 2 3 mph 1026.1mb 59f 60f
8:18am 1 3 mph 1026.2mb 59f 57f
8:12am 3 6 mph 1026.2mb 59f 54f
8:06am 5 6 mph 1026.2mb 59f 53f
8:00am 3 6 mph 1026.1mb 59f 54f
7:54am 5 6 mph 1026.2mb 59f 53f
7:48am 3 5 mph 1026.2mb 59f 53f
7:42am  -  2 mph 1026.2mb 59f 54f
7:36am 2
mph
1026.3mb 59f 53f
7:30am  -  2 mph 1026.3mb 59f 54f
7:24am  -  5 mph 1026.3mb 59f 53f
7:18am 2 3 mph 1026.2mb 59f 53f
7:12am 1 3 mph 1026.2mb 59f 52f
7:06am 2 5 mph 1026.3mb 59f 51f
7:00am  -  2 mph 1026.3mb 59f 51f
6:54am  -  3 mph 1026.2mb 59f 51f
6:48am 3
mph
1026.2mb 59f 51f
6:42am 2 3 mph 1026.2mb 59f 50f
6:36am 2 5 mph 1026.2mb 59f 50f
6:30am 1 3 mph 1026.1mb 59f 51f
6:24am  -  2 mph 1026.1mb 59f 51f
6:18am 1 3 mph 1026mb 59f 51f
6:12am 2 3 mph 1026mb 59f 51f
6:06am 2 3 mph 1026mb 59f 51f
6:00am 2 5 mph 1025.9mb 59f 52f
5:54am 5
mph
1026mb 59f 51f
5:48am 5 6 mph 1025.9mb 59f 51f
5:42am 2 3 mph 1025.8mb 59f 51f
5:36am 2 3 mph 1025.8mb 59f 51f
5:30am 1 3 mph 1025.9mb 59f 51f
5:24am 2 5 mph 1025.9mb 59f 51f
5:18am 5 8 mph 1026mb 59f 51f
5:12am 6 9 mph 1026mb 59f 51f
5:06am 8 9 mph 1026mb 59f 51f
5:00am 6 7 mph 1026.1mb 59f 51f
4:54am 6 7 mph 1026.1mb 59f 51f
4:48am 2 3 mph 1026mb 59f 52f
4:42am 2 3 mph 1026.1mb 59f 52f
4:36am 3 6 mph 1026.1mb 59f 53f
4:30am 3 5 mph 1026mb 59f 52f
4:24am 3 5 mph 1026.1mb 59f 52f
4:18am 5 6 mph 1026.1mb 59f 52f
4:12am 6
mph
1026.1mb 59f 51f
4:06am 5 6 mph 1026.2mb 59f 51f
4:00am 2 3 mph 1026.2mb 59f 52f
3:54am 1 2 mph 1026.1mb 59f 52f
3:48am 1 3 mph 1026.1mb 59f 52f
3:42am 2 3 mph 1026mb 59f 52f
3:36am 3 5 mph 1026mb 59f 51f
3:30am 3 6 mph 1026.1mb 59f 51f
3:24am 2 5 mph 1026.1mb 59f 51f
3:18am 2 5 mph 1026.1mb 59f 50f
3:12am 3 5 mph 1026.2mb 59f 50f
3:06am 5 6 mph 1026.3mb 59f 51f
3:00am 1 3 mph 1026.4mb 59f 51f
2:54am 1 2 mph 1026.5mb 59f 52f
2:48am 1 3 mph 1026.5mb 59f 51f
2:42am 2 3 mph 1026.6mb 59f 51f
2:36am 1 5 mph 1026.7mb 59f 51f
2:30am 2 5 mph 1026.7mb 59f 51f
2:24am 2 3 mph 1026.7mb 60f 52f
2:18am  -  mph - - 52f
2:12am  -  mph - - 51f
2:06am  -  mph - - 52f
2:00am 2 3 mph - - -
1:54am 2 5 mph - - -
1:48am  -  mph - - 51f
1:42am  -  mph - - 51f
1:36am  -  mph - - 51f
1:30am 3 7 mph 1027.3mb 60f 51f
1:24am 5 7 mph 1027.2mb 60f 51f
1:18am 6 10 mph 1027.1mb 60f 53f
1:12am 8 13 mph 1027mb 60f 53f
1:06am 8 13 mph 1027mb 60f 54f
1:00am 10 13 mph 1026.9mb 60f 54f
12:54am 10 14 mph 1027mb 60f 54f
12:48am 11 14 mph 1027mb 60f 55f
12:42am 11 14 mph 1027mb 60f 55f
12:36am 11 13 mph 1026.9mb 60f 55f
12:30am 10 11 mph 1027mb 60f 55f
12:24am 10 11 mph 1027mb 60f 53f
12:18am 10 11 mph 1027mb 60f 53f
12:12am 8 10 mph 1027.1mb 60f 53f
12:06am 9 11 mph 1027.2mb 60f 53f
12:00am 3 6 mph 1027.2mb 60f 52f
Wed 02/03 11:54pm 6
mph
1027.3mb 60f 52f
11:48pm 6 8 mph 1027.4mb 60f 52f
11:42pm 6 8 mph 1027.6mb 60f 53f
11:36pm 3 6 mph 1027.6mb 60f 53f
11:30pm 6 7 mph 1027.7mb 60f 53f
11:24pm 6 7 mph 1027.7mb 60f 53f
11:18pm  -  mph 1027.7mb 60f 53f
11:12pm  -  mph 1027.7mb 60f 54f
11:06pm  -  mph 1027.7mb 60f 55f
11:00pm 1 3 mph 1027.7mb 60f 55f
10:54pm 2 6 mph 1027.7mb 60f 56f
10:48pm 5 7 mph 1027.7mb 60f 57f
10:42pm 6 8 mph 1027.8mb 60f 57f
10:36pm 6 7 mph 1028mb 60f 57f
10:30pm 7
mph
1028mb 60f 57f
10:24pm 6 7 mph 1028mb 60f 57f
10:18pm 5 7 mph 1027.9mb 60f 57f
10:12pm 6 7 mph 1027.8mb 60f 57f
10:06pm 7 8 mph 1027.8mb 60f 57f
10:00pm 7 8 mph 1027.8mb 60f 57f
9:54pm 7 8 mph 1027.9mb 60f 57f
9:48pm 7 8 mph 1027.9mb 60f 57f
9:42pm 7 8 mph 1027.9mb 60f 57f
9:36pm 8 9 mph 1027.8mb 60f 57f
9:30pm 7 8 mph 1027.8mb 60f 57f
9:24pm 7 9 mph 1027.8mb 60f 57f
9:18pm 8 9 mph 1027.8mb 60f 57f
9:12pm 7 9 mph 1027.8mb 60f 57f
9:06pm 8 9 mph 1027.8mb 60f 57f
9:00pm 7 10 mph 1027.9mb 60f 58f
8:54pm 9 10 mph 1027.9mb 60f 58f
8:48pm 9 11 mph 1027.7mb 60f 58f
8:42pm 9 10 mph 1027.6mb 60f 58f
8:36pm 9 13 mph 1027.6mb 60f 58f
8:30pm 9 11 mph 1027.5mb 60f 57f
8:24pm 8 10 mph 1027.5mb 60f 57f
8:18pm 8 13 mph 1027.4mb 60f 57f
8:12pm 10 11 mph 1027.4mb 60f 58f
8:06pm 10 13 mph 1027.3mb 60f 58f
8:00pm 10 13 mph 1027.3mb 60f 58f
7:54pm 10 13 mph 1027.3mb 60f 58f
7:48pm 9 10 mph 1027.2mb 60f 57f
7:42pm 9 11 mph 1027.1mb 60f 57f
7:36pm 8 10 mph 1027.1mb 60f 57f
7:30pm 8 10 mph 1027mb 60f 57f
7:24pm 8 10 mph 1027mb 60f 57f
7:18pm 8 9 mph 1026.9mb 60f 57f
7:12pm 8 10 mph 1026.9mb 60f 57f
7:06pm 8 11 mph 1026.8mb 60f 57f
7:00pm 10 11 mph 1026.7mb 60f 58f
6:54pm 9 11 mph 1026.6mb 60f 58f
6:48pm 9 13 mph 1026.5mb 60f 58f
6:42pm 11 14 mph 1026.4mb 60f 58f
6:36pm 11 13 mph 1026.4mb 60f 58f
6:30pm 11 13 mph 1026.3mb 60f 58f
6:24pm 11 13 mph 1026.4mb 60f 58f
6:18pm 11 13 mph 1026.3mb 60f 58f
6:12pm 10 11 mph 1026.2mb 60f 58f
6:06pm 10 11 mph 1026.2mb 60f 58f
6:00pm  -  mph 1026.1mb 60f 58f
5:54pm  -  mph 1026.1mb 60f 58f
5:48pm 9 11 mph 1026mb - 58f
5:42pm 10 11 mph 1025.9mb - 58f
5:36pm 9 10 mph 1025.8mb - 58f
5:30pm 8 10 mph 1025.7mb 60f 58f
5:18pm 7 9 mph 1025.6mb 60f 58f
5:12pm 7 8 mph 1025.5mb 60f 58f
5:06pm 7 9 mph 1025.5mb 60f 58f
5:00pm 8 9 mph 1025.5mb 60f 58f
4:54pm 8 9 mph 1025.4mb 60f 58f
4:48pm 8 10 mph 1025.4mb 60f 58f
4:42pm 8 9 mph 1025.4mb 60f 58f
4:36pm 8 9 mph 1025.3mb 60f 59f
4:30pm 8 10 mph 1025.2mb 60f 59f
4:24pm 7 8 mph 1025.3mb 60f 59f
4:18pm 7 8 mph 1025.2mb 60f 59f
4:12pm 6 7 mph 1025.2mb 60f 59f
4:06pm 7 8 mph 1025.2mb 60f 59f
4:00pm 7 8 mph 1025.2mb 60f 59f
3:54pm 7
mph
1025.2mb 60f 59f
3:48pm 6 7 mph - 60f 60f
3:42pm 6 7 mph - 61f 60f
3:36pm 5 7 mph - 60f 59f
3:30pm 6 8 mph 1025.3mb 60f 59f
3:24pm 7 8 mph 1025.4mb 60f 59f
3:18pm  -  mph 1025.3mb 60f 59f
3:12pm  -  mph 1025.4mb 60f 59f
3:06pm  -  mph 1025.4mb 60f 59f
3:00pm 6 8 mph 1025.5mb 60f 59f
2:54pm 7 8 mph 1025.6mb 60f 60f
2:48pm 6 8 mph - 60f -
2:42pm 5 7 mph - 60f -
2:36pm 5 6 mph - 60f -
2:30pm 5 6 mph 1025.7mb 60f 61f
2:24pm 3 5 mph 1025.8mb 60f 62f
2:18pm 3 5 mph 1025.8mb 60f 62f
2:12pm 3
mph
1025.8mb 60f 62f
2:06pm 3
mph
1025.8mb 60f 60f
2:00pm 2 5 mph 1025.8mb 60f 61f
1:54pm 2 5 mph 1025.9mb 60f 61f
1:48pm 3 5 mph 1025.9mb 60f 60f
1:42pm 5 6 mph 1025.9mb 60f 59f
1:36pm 3 6 mph 1025.9mb 60f 59f
1:30pm 5 6 mph 1026.1mb 60f 58f
1:24pm 6 8 mph 1026.2mb 60f 58f
1:18pm 6 7 mph 1026.2mb 60f 57f
1:12pm 6 9 mph 1026.2mb 60f 57f
1:06pm 6 8 mph 1026.2mb 60f 57f
1:00pm 6 7 mph 1026.2mb 60f 57f
12:54pm 6 8 mph 1026.3mb 60f 57f
12:48pm 7 8 mph 1026.4mb 60f 57f
12:42pm 7 8 mph 1026.6mb 60f 58f
12:36pm 8 9 mph 1026.7mb 60f 58f
12:30pm 7 9 mph 1026.7mb 60f 58f
12:24pm 6 8 mph 1026.7mb 60f 58f
12:18pm 6 8 mph 1026.7mb 60f 59f
12:12pm 7 8 mph 1026.8mb 60f 58f
12:06pm 6 7 mph 1026.9mb 60f 58f
12:00pm 6 7 mph 1027mb 60f 57f
11:54am 5 7 mph 1027.2mb 60f 58f
11:48am 5 7 mph 1027.3mb 60f 58f
11:42am 6 7 mph 1027.5mb 60f 58f
11:36am 6 8 mph 1027.6mb 60f 58f
11:30am 7 8 mph 1027.7mb 60f 58f
11:24am 6 8 mph 1027.7mb 60f 58f
11:18am 6 7 mph 1027.7mb 60f 57f
11:12am 5 7 mph 1027.7mb 60f 57f
11:06am 6 7 mph 1027.7mb 59f 57f
11:00am 5 8 mph 1027.8mb 59f 57f
10:54am 6 8 mph 1027.8mb 59f 57f
10:48am 7
mph
1027.8mb 59f 57f
10:42am 5 7 mph 1027.8mb 59f 58f
10:36am 6 7 mph 1027.8mb 59f 58f
10:30am 3 6 mph 1027.7mb 59f 58f
10:24am 5 6 mph 1027.7mb 59f 58f
10:18am 3 5 mph 1027.6mb 59f 58f
10:12am 3 5 mph 1027.6mb 59f 59f
10:06am 2 5 mph 1027.6mb 59f 58f
10:00am 2 3 mph 1027.5mb 59f 58f
9:54am 3
mph
1027.5mb 59f 59f
9:48am 3
mph
1027.5mb 59f 59f
9:42am 2 3 mph 1027.5mb 59f 58f
9:36am 2 3 mph 1027.5mb 59f 57f
9:24am 1 2 mph 1027.4mb 59f 59f
9:18am  -  2 mph 1027.3mb 59f 59f
9:12am  -  2 mph 1027.2mb 59f 59f
9:06am 1 3 mph 1027.2mb 59f 57f
9:00am 3 5 mph 1027.2mb 59f 55f
8:54am 3 5 mph 1027.2mb 59f 55f
8:48am 3 5 mph 1027.1mb 59f 56f
8:42am 1 3 mph 1027.1mb 59f 56f
8:36am 2 5 mph 1027.1mb 58f 56f
8:30am 1 3 mph 1027mb 58f 59f
8:24am  -  1 mph 1026.9mb 58f 59f
8:18am 1 2 mph 1026.8mb 58f 56f
8:12am 2 5 mph 1026.8mb 58f 53f
8:06am 3 5 mph 1026.7mb 58f 52f
8:00am 5 6 mph 1026.5mb 58f 51f
7:54am 5 6 mph 1026.4mb 58f 51f
7:48am 2 3 mph 1026.3mb 58f 51f
7:42am 5 7 mph 1026.1mb 58f 51f
7:36am 5 8 mph 1026mb 58f 51f
7:30am 6 9 mph 1025.9mb 58f 51f
7:24am 7 10 mph 1025.9mb 58f 50f
7:18am 8 9 mph 1025.8mb 58f 48f
7:12am 7 9 mph 1025.7mb 59f 47f
7:06am 6 11 mph 1025.7mb 59f 48f
7:00am 11 14 mph 1025.4mb 58f 49f
6:54am 11 13 mph 1025.4mb 58f 49f
6:48am 10 14 mph 1025.3mb 58f 49f
6:42am 10 14 mph 1025.2mb 58f 49f
6:36am 13 15 mph 1025.1mb 58f 49f
6:30am 14 15 mph 1025mb 58f 49f
6:24am 13 15 mph 1024.9mb 58f 49f
6:18am 14 16 mph 1025mb 58f 49f
6:12am 14 17 mph 1024.9mb 58f 48f
6:06am 15 16 mph 1024.8mb 58f 48f
6:00am 15 16 mph 1024.7mb 58f 49f
5:54am 14 15 mph 1024.6mb 58f 49f
5:48am 13 16 mph 1024.6mb 58f 49f
5:42am 14 16 mph 1024.5mb 58f 50f
5:36am 11 15 mph 1024.5mb 58f 50f
5:30am 14 16 mph 1024.4mb 59f 51f
5:24am 13 15 mph 1024.4mb 59f 50f
5:18am 11 15 mph 1024.3mb 59f 51f
5:12am 10 14 mph 1024.3mb 58f 51f
5:06am 10 15 mph 1024.3mb 58f 51f
5:00am 11 15 mph 1024.1mb 58f 50f
4:54am 11 15 mph 1024.2mb 58f 50f
4:48am 13 15 mph 1024.1mb 58f 50f
4:42am 11 15 mph 1024.1mb 58f 49f
4:36am 13 15 mph 1024mb 58f 49f
4:30am 14 15 mph 1024mb 58f 49f
4:24am 14 15 mph 1024mb 58f 48f
4:18am 14 15 mph 1023.9mb 58f 49f
4:12am 13 15 mph 1023.8mb 59f 49f
4:06am 13 16 mph 1023.7mb 59f 49f
4:00am 13 15 mph 1023.7mb 59f 48f
3:54am 14 16 mph 1023.6mb 59f 48f
3:48am 14 16 mph 1023.6mb 59f 48f
3:42am 15 17 mph 1023.6mb 59f 49f
3:36am 14 16 mph 1023.5mb 59f 49f
3:30am 14 16 mph 1023.5mb 59f 49f
3:24am 15 18 mph 1023.5mb 59f 48f
3:18am 16 18 mph 1023.5mb 59f 49f
3:12am 14 17 mph 1023.5mb 59f 49f
3:06am 13 16 mph 1023.6mb 59f 49f
3:00am 13 16 mph 1023.6mb 59f 49f
2:54am 14 16 mph 1023.6mb 59f 49f
2:48am 14 17 mph 1023.6mb 59f 49f
2:42am 16 18 mph 1023.6mb 59f 49f
2:36am 15 17 mph 1023.7mb 59f 49f
2:30am 14 17 mph 1023.6mb 59f 49f
2:24am 14 17 mph 1023.6mb 59f 49f
2:18am 15 18 mph 1023.6mb 59f 49f
2:12am 15 18 mph 1023.7mb 59f 49f
2:06am 14 18 mph 1023.7mb 59f 48f
2:00am 16 18 mph 1023.7mb 59f 48f
1:54am 16 18 mph 1023.8mb 59f 48f
1:48am  -  mph - 59f 48f
1:42am  -  mph - 59f 48f
1:36am  -  mph - 59f 48f
1:30am 16 20 mph 1023.8mb 59f 48f
1:24am 16 18 mph 1023.8mb 59f 48f
1:18am 16 18 mph 1023.9mb 59f 48f
1:12am 15 18 mph 1023.9mb 59f 49f
1:06am 15 18 mph 1023.9mb 59f 48f
1:00am 16 18 mph 1023.8mb 59f 48f
12:54am 16 20 mph 1023.8mb 59f 49f
12:48am 14 16 mph 1023.9mb 59f 50f
12:42am 13 15 mph 1023.8mb 59f 49f
12:36am 13 15 mph 1023.9mb 59f 50f
12:30am 14 15 mph 1023.8mb 59f 52f
12:24am 13 15 mph 1023.8mb 59f 50f
12:18am 11 13 mph 1023.8mb 59f 50f
12:12am 11 13 mph 1023.9mb 59f 50f
12:06am 11 14 mph 1023.9mb 59f 50f
12:00am 13 14 mph 1023.8mb 59f 49f
Tue 02/02 11:54pm 11 13 mph 1023.8mb 59f 49f
11:48pm 10 13 mph 1023.8mb 59f 49f
11:42pm 10 14 mph 1023.9mb 59f 49f
11:36pm 13 15 mph 1023.8mb 59f 49f
11:24pm 13 17 mph 1023.9mb 59f 50f
11:18pm 14 15 mph 1023.9mb 59f 50f
11:12pm 14 15 mph 1024mb 59f 49f
11:06pm 15 16 mph 1024mb 59f 49f
11:00pm 11 16 mph 1023.9mb 60f 51f
10:54pm 14 17 mph 1024mb 60f 50f
10:48pm 13 15 mph 1024mb 59f 50f
10:42pm 11 16 mph 1024mb 59f 50f
10:36pm 14 15 mph 1024mb 59f 50f
10:30pm 14 16 mph 1024mb 60f 51f
10:24pm 11 13 mph 1023.9mb 59f 51f
10:18pm 9 11 mph 1023.9mb 59f 50f
10:12pm 8 10 mph 1023.9mb 59f 51f
10:06pm 8 9 mph 1023.9mb 59f 52f
10:00pm 7 8 mph 1023.9mb 59f 53f
9:54pm 7 8 mph 1023.8mb 59f 53f
9:48pm 7 9 mph 1023.8mb 59f 53f
9:42pm 6 8 mph 1023.7mb 59f 53f
9:36pm 7 9 mph 1023.8mb 59f 53f
9:30pm 8 10 mph 1023.8mb 59f 52f
9:24pm 8 10 mph 1023.8mb 59f 53f
9:18pm 8 10 mph 1023.8mb 59f 53f
9:12pm 7 9 mph 1023.7mb 59f 54f
9:06pm 7
mph
1023.7mb 59f 54f
9:00pm 6
mph
1023.7mb 59f 54f
8:54pm 6 7 mph 1023.7mb 59f 54f
8:48pm 6
mph
1023.7mb 59f 54f
8:42pm 5 7 mph 1023.7mb 59f 54f
8:36pm 6 8 mph 1023.7mb 59f 54f
8:30pm 7 8 mph 1023.6mb 59f 55f
8:24pm 7 9 mph 1023.6mb 59f 55f
8:18pm 7 9 mph 1023.6mb 59f 55f
8:12pm 6 7 mph 1023.6mb 59f 55f
8:06pm 6 7 mph 1023.6mb 59f 55f
8:00pm 6 7 mph 1023.6mb 59f 55f
7:54pm 6 7 mph 1023.6mb 59f 55f
7:48pm 6
mph
1023.6mb 59f 55f
7:42pm 5 6 mph 1023.5mb 59f 55f
7:36pm 3 6 mph 1023.5mb 60f 55f
7:30pm 5 6 mph 1023.4mb 59f 55f
7:24pm 3 5 mph 1023.4mb 59f 55f
7:18pm  -  2 mph 1023.3mb 59f 54f
7:12pm  -  2 mph 1023.2mb 59f 54f
7:06pm 2
mph
1023.1mb 59f 54f
7:00pm  -  mph 1023.1mb 59f 54f
6:54pm  -  1 mph 1023.1mb 59f 54f
6:48pm  -  1 mph 1022.9mb 59f 54f
6:42pm 1 2 mph 1022.9mb 59f 55f
6:36pm 1 2 mph 1022.8mb 59f 54f
6:30pm  -  mph 1022.7mb 59f 54f
6:18pm 2
mph
1022.5mb 59f 55f
6:12pm 2 3 mph 1022.4mb 59f 55f
6:06pm 3
mph
1022.4mb 59f 55f
6:00pm 2 3 mph - 59f 55f
5:54pm 3 5 mph - 59f 55f
5:48pm 2 3 mph 1022.2mb 59f 56f
5:42pm 3 5 mph 1022.1mb 59f 56f
5:36pm 3 6 mph 1022.1mb 59f 56f
5:30pm 3 6 mph 1022.2mb 59f 56f
5:24pm 3 6 mph 1022.1mb 60f 56f
5:18pm 2 5 mph 1022.1mb 59f 56f
5:12pm 1 2 mph 1022mb 59f 57f
5:06pm 2 3 mph 1022.1mb 59f 57f
5:00pm  -  mph 1022.2mb 59f 57f
4:54pm  -  mph 1022.2mb 59f 57f
4:48pm 3 7 mph 1022.2mb 59f 58f
4:42pm 6 8 mph 1022.2mb 59f 57f
4:36pm 5 7 mph 1022.2mb 59f 58f
4:30pm  -  mph 1022.2mb 59f 58f
4:24pm  -  mph 1022.2mb 59f 58f
4:18pm 6 8 mph 1022.2mb 59f 58f
4:12pm 6 8 mph 1022.2mb 60f 58f